<?xml version="1.0" encoding="UTF-8" standalone="no" ?>
<gpx xmlns="http://www.topografix.com/GPX/1/1" xmlns:xsi="http://www.w3.org/2001/XMLSchema-instance" xsi:schemaLocation="http://www.topografix.com/GPX/1/1 http://www.topografix.com/GPX/1/1/gpx.xsd" version="1.1" creator="VisuGPX - https://www.visugpx.com">
  <metadata>
    <name>Sortie Vélo La Gatolière - 2eme Groupe</name>
    <desc><![CDATA[La première sortie Vélo de l\'école de la Gatolière
2eme Group]]></desc>
  </metadata>
  <trk>
    <name><![CDATA[31-MAI-12 16:10:53]]></name>
    <trkseg>
      <trkpt lat="45.74462" lon="4.71363">
        <ele>297.67</ele>
        <time>2012-05-31T12:51:07Z</time>
      </trkpt>
      <trkpt lat="45.74462" lon="4.71363">
        <ele>297.67</ele>
        <time>2012-05-31T12:51:38Z</time>
      </trkpt>
      <trkpt lat="45.74461" lon="4.71363">
        <ele>297.67</ele>
        <time>2012-05-31T12:51:51Z</time>
      </trkpt>
      <trkpt lat="45.74462" lon="4.71364">
        <ele>298.15</ele>
        <time>2012-05-31T12:52:29Z</time>
      </trkpt>
      <trkpt lat="45.74463" lon="4.71366">
        <ele>298.63</ele>
        <time>2012-05-31T12:53:18Z</time>
      </trkpt>
      <trkpt lat="45.74463" lon="4.71365">
        <ele>299.59</ele>
        <time>2012-05-31T12:53:45Z</time>
      </trkpt>
      <trkpt lat="45.74464" lon="4.71366">
        <ele>299.59</ele>
        <time>2012-05-31T12:54:29Z</time>
      </trkpt>
      <trkpt lat="45.74463" lon="4.71365">
        <ele>299.59</ele>
        <time>2012-05-31T12:55:09Z</time>
      </trkpt>
      <trkpt lat="45.74463" lon="4.71365">
        <ele>299.59</ele>
        <time>2012-05-31T12:55:45Z</time>
      </trkpt>
      <trkpt lat="45.74463" lon="4.71365">
        <ele>299.59</ele>
        <time>2012-05-31T12:55:48Z</time>
      </trkpt>
      <trkpt lat="45.74462" lon="4.71364">
        <ele>299.11</ele>
        <time>2012-05-31T12:56:02Z</time>
      </trkpt>
      <trkpt lat="45.7446" lon="4.71374">
        <ele>300.07</ele>
        <time>2012-05-31T12:56:15Z</time>
      </trkpt>
      <trkpt lat="45.7446" lon="4.71378">
        <ele>299.11</ele>
        <time>2012-05-31T12:56:38Z</time>
      </trkpt>
      <trkpt lat="45.74461" lon="4.71379">
        <ele>297.67</ele>
        <time>2012-05-31T12:57:01Z</time>
      </trkpt>
      <trkpt lat="45.7446" lon="4.71378">
        <ele>297.18</ele>
        <time>2012-05-31T12:57:05Z</time>
      </trkpt>
      <trkpt lat="45.74461" lon="4.71378">
        <ele>296.7</ele>
        <time>2012-05-31T12:57:21Z</time>
      </trkpt>
      <trkpt lat="45.7446" lon="4.71377">
        <ele>296.7</ele>
        <time>2012-05-31T12:57:36Z</time>
      </trkpt>
      <trkpt lat="45.7446" lon="4.71376">
        <ele>295.74</ele>
        <time>2012-05-31T12:58:04Z</time>
      </trkpt>
      <trkpt lat="45.7448" lon="4.71357">
        <ele>296.7</ele>
        <time>2012-05-31T12:58:17Z</time>
      </trkpt>
      <trkpt lat="45.74512" lon="4.7132">
        <ele>298.15</ele>
        <time>2012-05-31T12:58:31Z</time>
      </trkpt>
      <trkpt lat="45.74564" lon="4.71256">
        <ele>297.18</ele>
        <time>2012-05-31T12:58:51Z</time>
      </trkpt>
      <trkpt lat="45.74578" lon="4.71229">
        <ele>296.7</ele>
        <time>2012-05-31T12:58:58Z</time>
      </trkpt>
      <trkpt lat="45.74595" lon="4.71239">
        <ele>295.26</ele>
        <time>2012-05-31T12:59:07Z</time>
      </trkpt>
      <trkpt lat="45.74615" lon="4.71307">
        <ele>293.34</ele>
        <time>2012-05-31T12:59:25Z</time>
      </trkpt>
      <trkpt lat="45.74634" lon="4.71345">
        <ele>291.9</ele>
        <time>2012-05-31T12:59:34Z</time>
      </trkpt>
      <trkpt lat="45.74707" lon="4.71359">
        <ele>289.01</ele>
        <time>2012-05-31T12:59:50Z</time>
      </trkpt>
      <trkpt lat="45.74725" lon="4.71364">
        <ele>288.53</ele>
        <time>2012-05-31T13:00:00Z</time>
      </trkpt>
      <trkpt lat="45.74729" lon="4.71366">
        <ele>288.05</ele>
        <time>2012-05-31T13:00:03Z</time>
      </trkpt>
      <trkpt lat="45.74729" lon="4.71413">
        <ele>287.57</ele>
        <time>2012-05-31T13:00:15Z</time>
      </trkpt>
      <trkpt lat="45.74729" lon="4.71484">
        <ele>289.49</ele>
        <time>2012-05-31T13:00:31Z</time>
      </trkpt>
      <trkpt lat="45.74729" lon="4.71523">
        <ele>289.97</ele>
        <time>2012-05-31T13:00:46Z</time>
      </trkpt>
      <trkpt lat="45.74728" lon="4.71534">
        <ele>289.49</ele>
        <time>2012-05-31T13:00:55Z</time>
      </trkpt>
      <trkpt lat="45.74735" lon="4.71538">
        <ele>289.49</ele>
        <time>2012-05-31T13:01:00Z</time>
      </trkpt>
      <trkpt lat="45.74768" lon="4.71517">
        <ele>287.09</ele>
        <time>2012-05-31T13:01:13Z</time>
      </trkpt>
      <trkpt lat="45.74787" lon="4.71488">
        <ele>289.01</ele>
        <time>2012-05-31T13:01:22Z</time>
      </trkpt>
      <trkpt lat="45.74788" lon="4.71486">
        <ele>289.01</ele>
        <time>2012-05-31T13:01:35Z</time>
      </trkpt>
      <trkpt lat="45.74788" lon="4.71484">
        <ele>289.49</ele>
        <time>2012-05-31T13:01:48Z</time>
      </trkpt>
      <trkpt lat="45.74797" lon="4.7147">
        <ele>289.49</ele>
        <time>2012-05-31T13:01:55Z</time>
      </trkpt>
      <trkpt lat="45.74804" lon="4.71465">
        <ele>289.49</ele>
        <time>2012-05-31T13:01:59Z</time>
      </trkpt>
      <trkpt lat="45.74806" lon="4.71459">
        <ele>289.49</ele>
        <time>2012-05-31T13:02:08Z</time>
      </trkpt>
      <trkpt lat="45.74806" lon="4.71459">
        <ele>289.01</ele>
        <time>2012-05-31T13:02:26Z</time>
      </trkpt>
      <trkpt lat="45.74805" lon="4.71458">
        <ele>289.49</ele>
        <time>2012-05-31T13:02:37Z</time>
      </trkpt>
      <trkpt lat="45.74804" lon="4.71461">
        <ele>289.49</ele>
        <time>2012-05-31T13:02:49Z</time>
      </trkpt>
      <trkpt lat="45.74804" lon="4.71461">
        <ele>288.53</ele>
        <time>2012-05-31T13:03:06Z</time>
      </trkpt>
      <trkpt lat="45.74804" lon="4.7146">
        <ele>287.57</ele>
        <time>2012-05-31T13:03:24Z</time>
      </trkpt>
      <trkpt lat="45.74805" lon="4.71459">
        <ele>287.09</ele>
        <time>2012-05-31T13:03:53Z</time>
      </trkpt>
      <trkpt lat="45.74806" lon="4.7146">
        <ele>286.61</ele>
        <time>2012-05-31T13:04:19Z</time>
      </trkpt>
      <trkpt lat="45.74807" lon="4.71461">
        <ele>287.09</ele>
        <time>2012-05-31T13:04:51Z</time>
      </trkpt>
      <trkpt lat="45.74806" lon="4.7146">
        <ele>288.05</ele>
        <time>2012-05-31T13:05:26Z</time>
      </trkpt>
      <trkpt lat="45.74807" lon="4.71459">
        <ele>288.53</ele>
        <time>2012-05-31T13:05:47Z</time>
      </trkpt>
      <trkpt lat="45.74806" lon="4.71459">
        <ele>287.09</ele>
        <time>2012-05-31T13:06:18Z</time>
      </trkpt>
      <trkpt lat="45.74806" lon="4.71459">
        <ele>287.09</ele>
        <time>2012-05-31T13:06:22Z</time>
      </trkpt>
      <trkpt lat="45.74825" lon="4.71436">
        <ele>287.57</ele>
        <time>2012-05-31T13:06:35Z</time>
      </trkpt>
      <trkpt lat="45.7487" lon="4.714">
        <ele>288.05</ele>
        <time>2012-05-31T13:06:51Z</time>
      </trkpt>
      <trkpt lat="45.74911" lon="4.71369">
        <ele>289.97</ele>
        <time>2012-05-31T13:07:07Z</time>
      </trkpt>
      <trkpt lat="45.74936" lon="4.71345">
        <ele>293.34</ele>
        <time>2012-05-31T13:07:19Z</time>
      </trkpt>
      <trkpt lat="45.74969" lon="4.71296">
        <ele>297.67</ele>
        <time>2012-05-31T13:07:37Z</time>
      </trkpt>
      <trkpt lat="45.74999" lon="4.71241">
        <ele>301.99</ele>
        <time>2012-05-31T13:07:55Z</time>
      </trkpt>
      <trkpt lat="45.75023" lon="4.71173">
        <ele>304.39</ele>
        <time>2012-05-31T13:08:13Z</time>
      </trkpt>
      <trkpt lat="45.7504" lon="4.71096">
        <ele>305.84</ele>
        <time>2012-05-31T13:08:31Z</time>
      </trkpt>
      <trkpt lat="45.75053" lon="4.71035">
        <ele>306.8</ele>
        <time>2012-05-31T13:08:46Z</time>
      </trkpt>
      <trkpt lat="45.75064" lon="4.70991">
        <ele>307.76</ele>
        <time>2012-05-31T13:08:59Z</time>
      </trkpt>
      <trkpt lat="45.75082" lon="4.70931">
        <ele>309.2</ele>
        <time>2012-05-31T13:09:16Z</time>
      </trkpt>
      <trkpt lat="45.751" lon="4.7087">
        <ele>310.16</ele>
        <time>2012-05-31T13:09:34Z</time>
      </trkpt>
      <trkpt lat="45.7511" lon="4.70831">
        <ele>311.12</ele>
        <time>2012-05-31T13:09:46Z</time>
      </trkpt>
      <trkpt lat="45.75114" lon="4.70775">
        <ele>312.57</ele>
        <time>2012-05-31T13:10:01Z</time>
      </trkpt>
      <trkpt lat="45.75113" lon="4.70712">
        <ele>314.01</ele>
        <time>2012-05-31T13:10:16Z</time>
      </trkpt>
      <trkpt lat="45.75113" lon="4.70643">
        <ele>314.01</ele>
        <time>2012-05-31T13:10:32Z</time>
      </trkpt>
      <trkpt lat="45.75111" lon="4.70559">
        <ele>315.45</ele>
        <time>2012-05-31T13:10:51Z</time>
      </trkpt>
      <trkpt lat="45.7511" lon="4.70502">
        <ele>315.93</ele>
        <time>2012-05-31T13:11:04Z</time>
      </trkpt>
      <trkpt lat="45.75108" lon="4.70428">
        <ele>317.37</ele>
        <time>2012-05-31T13:11:21Z</time>
      </trkpt>
      <trkpt lat="45.75107" lon="4.70369">
        <ele>317.85</ele>
        <time>2012-05-31T13:11:35Z</time>
      </trkpt>
      <trkpt lat="45.75127" lon="4.70342">
        <ele>316.41</ele>
        <time>2012-05-31T13:11:47Z</time>
      </trkpt>
      <trkpt lat="45.75152" lon="4.70305">
        <ele>316.89</ele>
        <time>2012-05-31T13:11:59Z</time>
      </trkpt>
      <trkpt lat="45.75183" lon="4.70261">
        <ele>317.85</ele>
        <time>2012-05-31T13:12:13Z</time>
      </trkpt>
      <trkpt lat="45.75211" lon="4.7022">
        <ele>317.85</ele>
        <time>2012-05-31T13:12:26Z</time>
      </trkpt>
      <trkpt lat="45.75213" lon="4.70216">
        <ele>317.85</ele>
        <time>2012-05-31T13:12:27Z</time>
      </trkpt>
      <trkpt lat="45.75252" lon="4.70175">
        <ele>317.85</ele>
        <time>2012-05-31T13:12:42Z</time>
      </trkpt>
      <trkpt lat="45.75274" lon="4.70152">
        <ele>317.37</ele>
        <time>2012-05-31T13:12:52Z</time>
      </trkpt>
      <trkpt lat="45.75266" lon="4.70137">
        <ele>317.85</ele>
        <time>2012-05-31T13:12:58Z</time>
      </trkpt>
      <trkpt lat="45.75224" lon="4.70097">
        <ele>317.85</ele>
        <time>2012-05-31T13:13:15Z</time>
      </trkpt>
      <trkpt lat="45.75177" lon="4.70058">
        <ele>318.33</ele>
        <time>2012-05-31T13:13:31Z</time>
      </trkpt>
      <trkpt lat="45.75132" lon="4.70018">
        <ele>318.33</ele>
        <time>2012-05-31T13:13:47Z</time>
      </trkpt>
      <trkpt lat="45.75109" lon="4.69989">
        <ele>318.81</ele>
        <time>2012-05-31T13:14:01Z</time>
      </trkpt>
      <trkpt lat="45.75098" lon="4.69924">
        <ele>320.26</ele>
        <time>2012-05-31T13:14:17Z</time>
      </trkpt>
      <trkpt lat="45.75084" lon="4.6986">
        <ele>320.26</ele>
        <time>2012-05-31T13:14:32Z</time>
      </trkpt>
      <trkpt lat="45.75068" lon="4.69791">
        <ele>322.66</ele>
        <time>2012-05-31T13:14:49Z</time>
      </trkpt>
      <trkpt lat="45.75071" lon="4.6973">
        <ele>323.62</ele>
        <time>2012-05-31T13:15:03Z</time>
      </trkpt>
      <trkpt lat="45.75076" lon="4.69657">
        <ele>323.62</ele>
        <time>2012-05-31T13:15:19Z</time>
      </trkpt>
      <trkpt lat="45.75078" lon="4.69626">
        <ele>324.58</ele>
        <time>2012-05-31T13:15:31Z</time>
      </trkpt>
      <trkpt lat="45.75078" lon="4.69626">
        <ele>324.58</ele>
        <time>2012-05-31T13:15:57Z</time>
      </trkpt>
      <trkpt lat="45.75079" lon="4.69625">
        <ele>323.62</ele>
        <time>2012-05-31T13:16:24Z</time>
      </trkpt>
      <trkpt lat="45.75079" lon="4.69625">
        <ele>323.14</ele>
        <time>2012-05-31T13:16:52Z</time>
      </trkpt>
      <trkpt lat="45.75078" lon="4.69599">
        <ele>323.62</ele>
        <time>2012-05-31T13:17:05Z</time>
      </trkpt>
      <trkpt lat="45.75074" lon="4.6952">
        <ele>325.54</ele>
        <time>2012-05-31T13:17:24Z</time>
      </trkpt>
      <trkpt lat="45.75066" lon="4.69454">
        <ele>328.91</ele>
        <time>2012-05-31T13:17:40Z</time>
      </trkpt>
      <trkpt lat="45.75053" lon="4.69408">
        <ele>330.83</ele>
        <time>2012-05-31T13:17:52Z</time>
      </trkpt>
      <trkpt lat="45.75051" lon="4.69362">
        <ele>331.31</ele>
        <time>2012-05-31T13:18:04Z</time>
      </trkpt>
      <trkpt lat="45.75083" lon="4.69308">
        <ele>331.79</ele>
        <time>2012-05-31T13:18:19Z</time>
      </trkpt>
      <trkpt lat="45.75103" lon="4.69269">
        <ele>331.79</ele>
        <time>2012-05-31T13:18:30Z</time>
      </trkpt>
      <trkpt lat="45.75139" lon="4.69209">
        <ele>333.23</ele>
        <time>2012-05-31T13:18:48Z</time>
      </trkpt>
      <trkpt lat="45.75146" lon="4.69196">
        <ele>333.71</ele>
        <time>2012-05-31T13:18:52Z</time>
      </trkpt>
      <trkpt lat="45.75141" lon="4.69185">
        <ele>334.2</ele>
        <time>2012-05-31T13:18:56Z</time>
      </trkpt>
      <trkpt lat="45.7512" lon="4.69156">
        <ele>334.68</ele>
        <time>2012-05-31T13:19:09Z</time>
      </trkpt>
      <trkpt lat="45.75079" lon="4.69096">
        <ele>337.08</ele>
        <time>2012-05-31T13:19:28Z</time>
      </trkpt>
      <trkpt lat="45.75044" lon="4.69041">
        <ele>339.48</ele>
        <time>2012-05-31T13:19:45Z</time>
      </trkpt>
      <trkpt lat="45.75011" lon="4.69008">
        <ele>342.37</ele>
        <time>2012-05-31T13:20:00Z</time>
      </trkpt>
      <trkpt lat="45.75004" lon="4.69004">
        <ele>342.85</ele>
        <time>2012-05-31T13:20:05Z</time>
      </trkpt>
      <trkpt lat="45.75002" lon="4.68995">
        <ele>342.85</ele>
        <time>2012-05-31T13:20:09Z</time>
      </trkpt>
      <trkpt lat="45.75004" lon="4.6895">
        <ele>345.73</ele>
        <time>2012-05-31T13:20:25Z</time>
      </trkpt>
      <trkpt lat="45.75003" lon="4.68917">
        <ele>347.17</ele>
        <time>2012-05-31T13:20:41Z</time>
      </trkpt>
      <trkpt lat="45.74994" lon="4.68872">
        <ele>348.13</ele>
        <time>2012-05-31T13:20:55Z</time>
      </trkpt>
      <trkpt lat="45.74982" lon="4.68821">
        <ele>349.58</ele>
        <time>2012-05-31T13:21:10Z</time>
      </trkpt>
      <trkpt lat="45.74964" lon="4.68758">
        <ele>351.02</ele>
        <time>2012-05-31T13:21:26Z</time>
      </trkpt>
      <trkpt lat="45.74942" lon="4.68679">
        <ele>353.42</ele>
        <time>2012-05-31T13:21:44Z</time>
      </trkpt>
      <trkpt lat="45.74919" lon="4.68597">
        <ele>356.31</ele>
        <time>2012-05-31T13:22:03Z</time>
      </trkpt>
      <trkpt lat="45.74899" lon="4.68528">
        <ele>358.23</ele>
        <time>2012-05-31T13:22:20Z</time>
      </trkpt>
      <trkpt lat="45.7488" lon="4.68459">
        <ele>360.15</ele>
        <time>2012-05-31T13:22:38Z</time>
      </trkpt>
      <trkpt lat="45.74864" lon="4.68392">
        <ele>363.04</ele>
        <time>2012-05-31T13:22:56Z</time>
      </trkpt>
      <trkpt lat="45.74853" lon="4.68339">
        <ele>364.48</ele>
        <time>2012-05-31T13:23:10Z</time>
      </trkpt>
      <trkpt lat="45.74842" lon="4.68273">
        <ele>367.36</ele>
        <time>2012-05-31T13:23:27Z</time>
      </trkpt>
      <trkpt lat="45.74833" lon="4.68205">
        <ele>368.8</ele>
        <time>2012-05-31T13:23:45Z</time>
      </trkpt>
      <trkpt lat="45.74825" lon="4.68112">
        <ele>370.73</ele>
        <time>2012-05-31T13:24:07Z</time>
      </trkpt>
      <trkpt lat="45.74822" lon="4.6808">
        <ele>371.69</ele>
        <time>2012-05-31T13:24:15Z</time>
      </trkpt>
      <trkpt lat="45.74821" lon="4.68065">
        <ele>371.69</ele>
        <time>2012-05-31T13:24:19Z</time>
      </trkpt>
      <trkpt lat="45.74821" lon="4.68001">
        <ele>372.17</ele>
        <time>2012-05-31T13:24:33Z</time>
      </trkpt>
      <trkpt lat="45.74823" lon="4.67942">
        <ele>372.65</ele>
        <time>2012-05-31T13:24:46Z</time>
      </trkpt>
      <trkpt lat="45.74824" lon="4.67908">
        <ele>373.61</ele>
        <time>2012-05-31T13:24:59Z</time>
      </trkpt>
      <trkpt lat="45.748" lon="4.67886">
        <ele>374.09</ele>
        <time>2012-05-31T13:25:12Z</time>
      </trkpt>
      <trkpt lat="45.74755" lon="4.67884">
        <ele>372.65</ele>
        <time>2012-05-31T13:25:25Z</time>
      </trkpt>
      <trkpt lat="45.74752" lon="4.67887">
        <ele>372.17</ele>
        <time>2012-05-31T13:25:33Z</time>
      </trkpt>
      <trkpt lat="45.74752" lon="4.67887">
        <ele>372.17</ele>
        <time>2012-05-31T13:25:42Z</time>
      </trkpt>
      <trkpt lat="45.7475" lon="4.67889">
        <ele>372.17</ele>
        <time>2012-05-31T13:25:47Z</time>
      </trkpt>
      <trkpt lat="45.74748" lon="4.67892">
        <ele>370.73</ele>
        <time>2012-05-31T13:26:00Z</time>
      </trkpt>
      <trkpt lat="45.74747" lon="4.67891">
        <ele>367.84</ele>
        <time>2012-05-31T13:26:39Z</time>
      </trkpt>
      <trkpt lat="45.74746" lon="4.6789">
        <ele>366.88</ele>
        <time>2012-05-31T13:27:16Z</time>
      </trkpt>
      <trkpt lat="45.74746" lon="4.67891">
        <ele>364.96</ele>
        <time>2012-05-31T13:27:53Z</time>
      </trkpt>
      <trkpt lat="45.74746" lon="4.67889">
        <ele>364.48</ele>
        <time>2012-05-31T13:28:32Z</time>
      </trkpt>
      <trkpt lat="45.74746" lon="4.67888">
        <ele>362.07</ele>
        <time>2012-05-31T13:29:05Z</time>
      </trkpt>
      <trkpt lat="45.74746" lon="4.67889">
        <ele>360.15</ele>
        <time>2012-05-31T13:29:41Z</time>
      </trkpt>
      <trkpt lat="45.74746" lon="4.67889">
        <ele>359.19</ele>
        <time>2012-05-31T13:30:19Z</time>
      </trkpt>
      <trkpt lat="45.74747" lon="4.67889">
        <ele>359.67</ele>
        <time>2012-05-31T13:30:50Z</time>
      </trkpt>
      <trkpt lat="45.74747" lon="4.6789">
        <ele>362.07</ele>
        <time>2012-05-31T13:31:06Z</time>
      </trkpt>
      <trkpt lat="45.74749" lon="4.67892">
        <ele>365.92</ele>
        <time>2012-05-31T13:31:30Z</time>
      </trkpt>
      <trkpt lat="45.74749" lon="4.67892">
        <ele>366.88</ele>
        <time>2012-05-31T13:31:43Z</time>
      </trkpt>
      <trkpt lat="45.74749" lon="4.67893">
        <ele>368.32</ele>
        <time>2012-05-31T13:32:01Z</time>
      </trkpt>
      <trkpt lat="45.74748" lon="4.67893">
        <ele>368.32</ele>
        <time>2012-05-31T13:32:16Z</time>
      </trkpt>
      <trkpt lat="45.74747" lon="4.67894">
        <ele>368.8</ele>
        <time>2012-05-31T13:32:40Z</time>
      </trkpt>
      <trkpt lat="45.74728" lon="4.67928">
        <ele>368.32</ele>
        <time>2012-05-31T13:32:52Z</time>
      </trkpt>
      <trkpt lat="45.74723" lon="4.67945">
        <ele>367.36</ele>
        <time>2012-05-31T13:32:55Z</time>
      </trkpt>
      <trkpt lat="45.74701" lon="4.68042">
        <ele>362.55</ele>
        <time>2012-05-31T13:33:07Z</time>
      </trkpt>
      <trkpt lat="45.74698" lon="4.6805">
        <ele>362.07</ele>
        <time>2012-05-31T13:33:08Z</time>
      </trkpt>
      <trkpt lat="45.74681" lon="4.68081">
        <ele>359.67</ele>
        <time>2012-05-31T13:33:12Z</time>
      </trkpt>
      <trkpt lat="45.7467" lon="4.68094">
        <ele>358.23</ele>
        <time>2012-05-31T13:33:14Z</time>
      </trkpt>
      <trkpt lat="45.74593" lon="4.68144">
        <ele>351.98</ele>
        <time>2012-05-31T13:33:25Z</time>
      </trkpt>
      <trkpt lat="45.74571" lon="4.68171">
        <ele>349.58</ele>
        <time>2012-05-31T13:33:29Z</time>
      </trkpt>
      <trkpt lat="45.7453" lon="4.68275">
        <ele>343.33</ele>
        <time>2012-05-31T13:33:39Z</time>
      </trkpt>
      <trkpt lat="45.74512" lon="4.68328">
        <ele>339.48</ele>
        <time>2012-05-31T13:33:46Z</time>
      </trkpt>
      <trkpt lat="45.74507" lon="4.68341">
        <ele>338.04</ele>
        <time>2012-05-31T13:33:48Z</time>
      </trkpt>
      <trkpt lat="45.74478" lon="4.68354">
        <ele>334.2</ele>
        <time>2012-05-31T13:33:56Z</time>
      </trkpt>
      <trkpt lat="45.74475" lon="4.6835">
        <ele>334.2</ele>
        <time>2012-05-31T13:33:57Z</time>
      </trkpt>
      <trkpt lat="45.74452" lon="4.68289">
        <ele>331.79</ele>
        <time>2012-05-31T13:34:08Z</time>
      </trkpt>
      <trkpt lat="45.7441" lon="4.68241">
        <ele>330.35</ele>
        <time>2012-05-31T13:34:16Z</time>
      </trkpt>
      <trkpt lat="45.74366" lon="4.68169">
        <ele>330.35</ele>
        <time>2012-05-31T13:34:28Z</time>
      </trkpt>
      <trkpt lat="45.74361" lon="4.6816">
        <ele>330.83</ele>
        <time>2012-05-31T13:34:30Z</time>
      </trkpt>
      <trkpt lat="45.74344" lon="4.68163">
        <ele>330.35</ele>
        <time>2012-05-31T13:34:35Z</time>
      </trkpt>
      <trkpt lat="45.7432" lon="4.68187">
        <ele>332.75</ele>
        <time>2012-05-31T13:34:46Z</time>
      </trkpt>
      <trkpt lat="45.74309" lon="4.68229">
        <ele>336.6</ele>
        <time>2012-05-31T13:34:57Z</time>
      </trkpt>
      <trkpt lat="45.74298" lon="4.6828">
        <ele>339.96</ele>
        <time>2012-05-31T13:35:10Z</time>
      </trkpt>
      <trkpt lat="45.74285" lon="4.68347">
        <ele>340.44</ele>
        <time>2012-05-31T13:35:25Z</time>
      </trkpt>
      <trkpt lat="45.7426" lon="4.68361">
        <ele>340.92</ele>
        <time>2012-05-31T13:35:34Z</time>
      </trkpt>
      <trkpt lat="45.7421" lon="4.68368">
        <ele>342.85</ele>
        <time>2012-05-31T13:35:50Z</time>
      </trkpt>
      <trkpt lat="45.74163" lon="4.68372">
        <ele>345.73</ele>
        <time>2012-05-31T13:36:06Z</time>
      </trkpt>
      <trkpt lat="45.74117" lon="4.68375">
        <ele>347.17</ele>
        <time>2012-05-31T13:36:20Z</time>
      </trkpt>
      <trkpt lat="45.74062" lon="4.68379">
        <ele>347.65</ele>
        <time>2012-05-31T13:36:37Z</time>
      </trkpt>
      <trkpt lat="45.74021" lon="4.68381">
        <ele>347.65</ele>
        <time>2012-05-31T13:36:49Z</time>
      </trkpt>
      <trkpt lat="45.73979" lon="4.68383">
        <ele>346.21</ele>
        <time>2012-05-31T13:37:02Z</time>
      </trkpt>
      <trkpt lat="45.73967" lon="4.68381">
        <ele>345.73</ele>
        <time>2012-05-31T13:37:05Z</time>
      </trkpt>
      <trkpt lat="45.73964" lon="4.68397">
        <ele>344.77</ele>
        <time>2012-05-31T13:37:13Z</time>
      </trkpt>
      <trkpt lat="45.73979" lon="4.6842">
        <ele>342.85</ele>
        <time>2012-05-31T13:37:23Z</time>
      </trkpt>
      <trkpt lat="45.73982" lon="4.6842">
        <ele>343.33</ele>
        <time>2012-05-31T13:37:34Z</time>
      </trkpt>
      <trkpt lat="45.73983" lon="4.68422">
        <ele>343.33</ele>
        <time>2012-05-31T13:37:54Z</time>
      </trkpt>
      <trkpt lat="45.73982" lon="4.68423">
        <ele>343.81</ele>
        <time>2012-05-31T13:38:22Z</time>
      </trkpt>
      <trkpt lat="45.73982" lon="4.68423">
        <ele>343.81</ele>
        <time>2012-05-31T13:38:51Z</time>
      </trkpt>
      <trkpt lat="45.73982" lon="4.68422">
        <ele>343.81</ele>
        <time>2012-05-31T13:39:22Z</time>
      </trkpt>
      <trkpt lat="45.73982" lon="4.68422">
        <ele>342.37</ele>
        <time>2012-05-31T13:40:06Z</time>
      </trkpt>
      <trkpt lat="45.73983" lon="4.68421">
        <ele>341.89</ele>
        <time>2012-05-31T13:40:34Z</time>
      </trkpt>
      <trkpt lat="45.73984" lon="4.6842">
        <ele>341.89</ele>
        <time>2012-05-31T13:41:03Z</time>
      </trkpt>
      <trkpt lat="45.73984" lon="4.68419">
        <ele>343.33</ele>
        <time>2012-05-31T13:41:33Z</time>
      </trkpt>
      <trkpt lat="45.73983" lon="4.68421">
        <ele>343.33</ele>
        <time>2012-05-31T13:41:55Z</time>
      </trkpt>
      <trkpt lat="45.73983" lon="4.6842">
        <ele>342.37</ele>
        <time>2012-05-31T13:42:17Z</time>
      </trkpt>
      <trkpt lat="45.73983" lon="4.68421">
        <ele>342.85</ele>
        <time>2012-05-31T13:42:35Z</time>
      </trkpt>
      <trkpt lat="45.73983" lon="4.68421">
        <ele>342.37</ele>
        <time>2012-05-31T13:42:39Z</time>
      </trkpt>
      <trkpt lat="45.74002" lon="4.68455">
        <ele>340.92</ele>
        <time>2012-05-31T13:42:51Z</time>
      </trkpt>
      <trkpt lat="45.74031" lon="4.68506">
        <ele>340.92</ele>
        <time>2012-05-31T13:43:04Z</time>
      </trkpt>
      <trkpt lat="45.74046" lon="4.68529">
        <ele>340.92</ele>
        <time>2012-05-31T13:43:09Z</time>
      </trkpt>
      <trkpt lat="45.74052" lon="4.68536">
        <ele>340.44</ele>
        <time>2012-05-31T13:43:11Z</time>
      </trkpt>
      <trkpt lat="45.74077" lon="4.6856">
        <ele>339.96</ele>
        <time>2012-05-31T13:43:18Z</time>
      </trkpt>
      <trkpt lat="45.74102" lon="4.68575">
        <ele>339.48</ele>
        <time>2012-05-31T13:43:24Z</time>
      </trkpt>
      <trkpt lat="45.74156" lon="4.68593">
        <ele>337.56</ele>
        <time>2012-05-31T13:43:35Z</time>
      </trkpt>
      <trkpt lat="45.74185" lon="4.68593">
        <ele>336.6</ele>
        <time>2012-05-31T13:43:40Z</time>
      </trkpt>
      <trkpt lat="45.74218" lon="4.68583">
        <ele>335.16</ele>
        <time>2012-05-31T13:43:45Z</time>
      </trkpt>
      <trkpt lat="45.74231" lon="4.68576">
        <ele>334.2</ele>
        <time>2012-05-31T13:43:47Z</time>
      </trkpt>
      <trkpt lat="45.74245" lon="4.68571">
        <ele>333.71</ele>
        <time>2012-05-31T13:43:49Z</time>
      </trkpt>
      <trkpt lat="45.74287" lon="4.68565">
        <ele>332.27</ele>
        <time>2012-05-31T13:43:55Z</time>
      </trkpt>
      <trkpt lat="45.74307" lon="4.68565">
        <ele>331.79</ele>
        <time>2012-05-31T13:43:58Z</time>
      </trkpt>
      <trkpt lat="45.74326" lon="4.68571">
        <ele>331.79</ele>
        <time>2012-05-31T13:44:01Z</time>
      </trkpt>
      <trkpt lat="45.74383" lon="4.68604">
        <ele>332.27</ele>
        <time>2012-05-31T13:44:11Z</time>
      </trkpt>
      <trkpt lat="45.74413" lon="4.68639">
        <ele>331.79</ele>
        <time>2012-05-31T13:44:17Z</time>
      </trkpt>
      <trkpt lat="45.7445" lon="4.68711">
        <ele>329.87</ele>
        <time>2012-05-31T13:44:27Z</time>
      </trkpt>
      <trkpt lat="45.74467" lon="4.68755">
        <ele>327.95</ele>
        <time>2012-05-31T13:44:35Z</time>
      </trkpt>
      <trkpt lat="45.74474" lon="4.68781">
        <ele>326.99</ele>
        <time>2012-05-31T13:44:39Z</time>
      </trkpt>
      <trkpt lat="45.74478" lon="4.68793">
        <ele>326.5</ele>
        <time>2012-05-31T13:44:41Z</time>
      </trkpt>
      <trkpt lat="45.74486" lon="4.68812">
        <ele>326.02</ele>
        <time>2012-05-31T13:44:44Z</time>
      </trkpt>
      <trkpt lat="45.7449" lon="4.68825">
        <ele>326.02</ele>
        <time>2012-05-31T13:44:46Z</time>
      </trkpt>
      <trkpt lat="45.74498" lon="4.68846">
        <ele>325.06</ele>
        <time>2012-05-31T13:44:49Z</time>
      </trkpt>
      <trkpt lat="45.74533" lon="4.68944">
        <ele>322.66</ele>
        <time>2012-05-31T13:45:03Z</time>
      </trkpt>
      <trkpt lat="45.74545" lon="4.69018">
        <ele>321.7</ele>
        <time>2012-05-31T13:45:14Z</time>
      </trkpt>
      <trkpt lat="45.74535" lon="4.69027">
        <ele>322.18</ele>
        <time>2012-05-31T13:45:19Z</time>
      </trkpt>
      <trkpt lat="45.74523" lon="4.69024">
        <ele>321.7</ele>
        <time>2012-05-31T13:45:23Z</time>
      </trkpt>
      <trkpt lat="45.74522" lon="4.69025">
        <ele>320.74</ele>
        <time>2012-05-31T13:45:35Z</time>
      </trkpt>
      <trkpt lat="45.74521" lon="4.69027">
        <ele>320.74</ele>
        <time>2012-05-31T13:45:56Z</time>
      </trkpt>
      <trkpt lat="45.74522" lon="4.69028">
        <ele>320.74</ele>
        <time>2012-05-31T13:46:21Z</time>
      </trkpt>
      <trkpt lat="45.74522" lon="4.69027">
        <ele>320.74</ele>
        <time>2012-05-31T13:46:42Z</time>
      </trkpt>
      <trkpt lat="45.74521" lon="4.69027">
        <ele>320.26</ele>
        <time>2012-05-31T13:47:01Z</time>
      </trkpt>
      <trkpt lat="45.74521" lon="4.69027">
        <ele>319.78</ele>
        <time>2012-05-31T13:47:22Z</time>
      </trkpt>
      <trkpt lat="45.74515" lon="4.69071">
        <ele>318.33</ele>
        <time>2012-05-31T13:47:34Z</time>
      </trkpt>
      <trkpt lat="45.74513" lon="4.6915">
        <ele>317.37</ele>
        <time>2012-05-31T13:47:49Z</time>
      </trkpt>
      <trkpt lat="45.74518" lon="4.69184">
        <ele>317.37</ele>
        <time>2012-05-31T13:47:55Z</time>
      </trkpt>
      <trkpt lat="45.74521" lon="4.6922">
        <ele>316.89</ele>
        <time>2012-05-31T13:48:01Z</time>
      </trkpt>
      <trkpt lat="45.74517" lon="4.69289">
        <ele>315.45</ele>
        <time>2012-05-31T13:48:11Z</time>
      </trkpt>
      <trkpt lat="45.74528" lon="4.69332">
        <ele>316.41</ele>
        <time>2012-05-31T13:48:18Z</time>
      </trkpt>
      <trkpt lat="45.74531" lon="4.69418">
        <ele>314.97</ele>
        <time>2012-05-31T13:48:33Z</time>
      </trkpt>
      <trkpt lat="45.74531" lon="4.69431">
        <ele>314.97</ele>
        <time>2012-05-31T13:48:35Z</time>
      </trkpt>
      <trkpt lat="45.74536" lon="4.69498">
        <ele>313.05</ele>
        <time>2012-05-31T13:48:45Z</time>
      </trkpt>
      <trkpt lat="45.74537" lon="4.69523">
        <ele>312.57</ele>
        <time>2012-05-31T13:48:49Z</time>
      </trkpt>
      <trkpt lat="45.74542" lon="4.69621">
        <ele>310.64</ele>
        <time>2012-05-31T13:49:03Z</time>
      </trkpt>
      <trkpt lat="45.74546" lon="4.6974">
        <ele>309.2</ele>
        <time>2012-05-31T13:49:20Z</time>
      </trkpt>
      <trkpt lat="45.74548" lon="4.698">
        <ele>308.24</ele>
        <time>2012-05-31T13:49:32Z</time>
      </trkpt>
      <trkpt lat="45.74548" lon="4.69801">
        <ele>308.72</ele>
        <time>2012-05-31T13:49:36Z</time>
      </trkpt>
      <trkpt lat="45.7454" lon="4.69813">
        <ele>309.68</ele>
        <time>2012-05-31T13:49:41Z</time>
      </trkpt>
      <trkpt lat="45.74521" lon="4.69838">
        <ele>309.2</ele>
        <time>2012-05-31T13:49:47Z</time>
      </trkpt>
      <trkpt lat="45.74453" lon="4.69892">
        <ele>307.28</ele>
        <time>2012-05-31T13:50:01Z</time>
      </trkpt>
      <trkpt lat="45.74412" lon="4.69924">
        <ele>306.8</ele>
        <time>2012-05-31T13:50:11Z</time>
      </trkpt>
      <trkpt lat="45.74413" lon="4.69926">
        <ele>306.8</ele>
        <time>2012-05-31T13:50:26Z</time>
      </trkpt>
      <trkpt lat="45.74414" lon="4.69926">
        <ele>305.84</ele>
        <time>2012-05-31T13:50:47Z</time>
      </trkpt>
      <trkpt lat="45.74413" lon="4.69926">
        <ele>306.32</ele>
        <time>2012-05-31T13:51:03Z</time>
      </trkpt>
      <trkpt lat="45.74411" lon="4.69927">
        <ele>306.8</ele>
        <time>2012-05-31T13:51:29Z</time>
      </trkpt>
      <trkpt lat="45.74409" lon="4.69929">
        <ele>307.28</ele>
        <time>2012-05-31T13:51:53Z</time>
      </trkpt>
      <trkpt lat="45.74392" lon="4.69941">
        <ele>305.84</ele>
        <time>2012-05-31T13:52:00Z</time>
      </trkpt>
      <trkpt lat="45.74374" lon="4.69948">
        <ele>304.88</ele>
        <time>2012-05-31T13:52:04Z</time>
      </trkpt>
      <trkpt lat="45.74346" lon="4.6997">
        <ele>303.43</ele>
        <time>2012-05-31T13:52:10Z</time>
      </trkpt>
      <trkpt lat="45.74318" lon="4.70009">
        <ele>302.95</ele>
        <time>2012-05-31T13:52:17Z</time>
      </trkpt>
      <trkpt lat="45.74308" lon="4.70027">
        <ele>303.43</ele>
        <time>2012-05-31T13:52:20Z</time>
      </trkpt>
      <trkpt lat="45.74276" lon="4.7008">
        <ele>301.99</ele>
        <time>2012-05-31T13:52:31Z</time>
      </trkpt>
      <trkpt lat="45.7422" lon="4.70138">
        <ele>301.03</ele>
        <time>2012-05-31T13:52:46Z</time>
      </trkpt>
      <trkpt lat="45.74217" lon="4.70142">
        <ele>301.03</ele>
        <time>2012-05-31T13:52:47Z</time>
      </trkpt>
      <trkpt lat="45.74169" lon="4.70179">
        <ele>301.51</ele>
        <time>2012-05-31T13:53:02Z</time>
      </trkpt>
      <trkpt lat="45.74132" lon="4.70212">
        <ele>301.99</ele>
        <time>2012-05-31T13:53:12Z</time>
      </trkpt>
      <trkpt lat="45.74064" lon="4.70274">
        <ele>303.43</ele>
        <time>2012-05-31T13:53:30Z</time>
      </trkpt>
      <trkpt lat="45.74011" lon="4.70312">
        <ele>302.95</ele>
        <time>2012-05-31T13:53:43Z</time>
      </trkpt>
      <trkpt lat="45.74004" lon="4.70316">
        <ele>302.47</ele>
        <time>2012-05-31T13:53:45Z</time>
      </trkpt>
      <trkpt lat="45.73933" lon="4.70361">
        <ele>302.47</ele>
        <time>2012-05-31T13:54:04Z</time>
      </trkpt>
      <trkpt lat="45.73925" lon="4.70366">
        <ele>302.47</ele>
        <time>2012-05-31T13:54:06Z</time>
      </trkpt>
      <trkpt lat="45.73895" lon="4.70386">
        <ele>301.99</ele>
        <time>2012-05-31T13:54:13Z</time>
      </trkpt>
      <trkpt lat="45.73863" lon="4.70412">
        <ele>301.51</ele>
        <time>2012-05-31T13:54:20Z</time>
      </trkpt>
      <trkpt lat="45.73802" lon="4.70448">
        <ele>299.11</ele>
        <time>2012-05-31T13:54:32Z</time>
      </trkpt>
      <trkpt lat="45.73782" lon="4.70462">
        <ele>297.67</ele>
        <time>2012-05-31T13:54:37Z</time>
      </trkpt>
      <trkpt lat="45.73727" lon="4.70519">
        <ele>294.78</ele>
        <time>2012-05-31T13:54:51Z</time>
      </trkpt>
      <trkpt lat="45.73699" lon="4.70545">
        <ele>293.34</ele>
        <time>2012-05-31T13:54:56Z</time>
      </trkpt>
      <trkpt lat="45.73654" lon="4.70585">
        <ele>291.42</ele>
        <time>2012-05-31T13:55:05Z</time>
      </trkpt>
      <trkpt lat="45.73632" lon="4.70595">
        <ele>289.49</ele>
        <time>2012-05-31T13:55:09Z</time>
      </trkpt>
      <trkpt lat="45.73593" lon="4.70597">
        <ele>288.05</ele>
        <time>2012-05-31T13:55:16Z</time>
      </trkpt>
      <trkpt lat="45.73567" lon="4.70573">
        <ele>288.05</ele>
        <time>2012-05-31T13:55:27Z</time>
      </trkpt>
      <trkpt lat="45.7356" lon="4.70563">
        <ele>288.05</ele>
        <time>2012-05-31T13:55:30Z</time>
      </trkpt>
      <trkpt lat="45.7354" lon="4.70564">
        <ele>285.17</ele>
        <time>2012-05-31T13:55:36Z</time>
      </trkpt>
      <trkpt lat="45.73548" lon="4.70581">
        <ele>283.25</ele>
        <time>2012-05-31T13:55:41Z</time>
      </trkpt>
      <trkpt lat="45.7358" lon="4.70602">
        <ele>282.77</ele>
        <time>2012-05-31T13:55:54Z</time>
      </trkpt>
      <trkpt lat="45.73616" lon="4.7062">
        <ele>281.8</ele>
        <time>2012-05-31T13:56:06Z</time>
      </trkpt>
      <trkpt lat="45.73652" lon="4.70636">
        <ele>282.77</ele>
        <time>2012-05-31T13:56:19Z</time>
      </trkpt>
      <trkpt lat="45.73688" lon="4.70642">
        <ele>286.13</ele>
        <time>2012-05-31T13:56:30Z</time>
      </trkpt>
      <trkpt lat="45.73732" lon="4.70648">
        <ele>289.97</ele>
        <time>2012-05-31T13:56:44Z</time>
      </trkpt>
      <trkpt lat="45.73778" lon="4.70661">
        <ele>286.61</ele>
        <time>2012-05-31T13:56:57Z</time>
      </trkpt>
      <trkpt lat="45.73818" lon="4.70687">
        <ele>286.13</ele>
        <time>2012-05-31T13:57:10Z</time>
      </trkpt>
      <trkpt lat="45.73849" lon="4.70713">
        <ele>286.13</ele>
        <time>2012-05-31T13:57:21Z</time>
      </trkpt>
      <trkpt lat="45.73892" lon="4.70743">
        <ele>288.05</ele>
        <time>2012-05-31T13:57:36Z</time>
      </trkpt>
      <trkpt lat="45.73932" lon="4.70758">
        <ele>289.01</ele>
        <time>2012-05-31T13:57:49Z</time>
      </trkpt>
      <trkpt lat="45.73988" lon="4.70758">
        <ele>290.94</ele>
        <time>2012-05-31T13:58:06Z</time>
      </trkpt>
      <trkpt lat="45.74026" lon="4.70748">
        <ele>292.86</ele>
        <time>2012-05-31T13:58:19Z</time>
      </trkpt>
      <trkpt lat="45.74057" lon="4.70738">
        <ele>293.82</ele>
        <time>2012-05-31T13:58:32Z</time>
      </trkpt>
      <trkpt lat="45.74092" lon="4.70725">
        <ele>294.78</ele>
        <time>2012-05-31T13:58:44Z</time>
      </trkpt>
      <trkpt lat="45.74133" lon="4.70711">
        <ele>295.74</ele>
        <time>2012-05-31T13:58:57Z</time>
      </trkpt>
      <trkpt lat="45.74163" lon="4.70702">
        <ele>296.7</ele>
        <time>2012-05-31T13:59:08Z</time>
      </trkpt>
      <trkpt lat="45.74192" lon="4.70694">
        <ele>296.22</ele>
        <time>2012-05-31T13:59:18Z</time>
      </trkpt>
      <trkpt lat="45.74237" lon="4.70683">
        <ele>296.7</ele>
        <time>2012-05-31T13:59:32Z</time>
      </trkpt>
      <trkpt lat="45.74256" lon="4.70681">
        <ele>296.7</ele>
        <time>2012-05-31T13:59:43Z</time>
      </trkpt>
      <trkpt lat="45.74261" lon="4.70679">
        <ele>295.74</ele>
        <time>2012-05-31T14:00:06Z</time>
      </trkpt>
      <trkpt lat="45.74263" lon="4.70678">
        <ele>296.22</ele>
        <time>2012-05-31T14:00:22Z</time>
      </trkpt>
      <trkpt lat="45.74263" lon="4.70676">
        <ele>297.67</ele>
        <time>2012-05-31T14:00:45Z</time>
      </trkpt>
      <trkpt lat="45.74263" lon="4.70674">
        <ele>298.15</ele>
        <time>2012-05-31T14:01:05Z</time>
      </trkpt>
      <trkpt lat="45.74263" lon="4.70672">
        <ele>298.63</ele>
        <time>2012-05-31T14:01:34Z</time>
      </trkpt>
      <trkpt lat="45.74264" lon="4.70671">
        <ele>299.59</ele>
        <time>2012-05-31T14:02:07Z</time>
      </trkpt>
      <trkpt lat="45.74264" lon="4.7067">
        <ele>300.55</ele>
        <time>2012-05-31T14:02:40Z</time>
      </trkpt>
      <trkpt lat="45.74264" lon="4.70671">
        <ele>300.55</ele>
        <time>2012-05-31T14:03:02Z</time>
      </trkpt>
      <trkpt lat="45.74264" lon="4.70667">
        <ele>301.99</ele>
        <time>2012-05-31T14:03:29Z</time>
      </trkpt>
      <trkpt lat="45.74265" lon="4.70669">
        <ele>301.99</ele>
        <time>2012-05-31T14:03:56Z</time>
      </trkpt>
      <trkpt lat="45.74265" lon="4.70671">
        <ele>301.51</ele>
        <time>2012-05-31T14:04:28Z</time>
      </trkpt>
      <trkpt lat="45.74265" lon="4.70671">
        <ele>301.99</ele>
        <time>2012-05-31T14:04:51Z</time>
      </trkpt>
      <trkpt lat="45.74265" lon="4.70672">
        <ele>301.03</ele>
        <time>2012-05-31T14:05:17Z</time>
      </trkpt>
      <trkpt lat="45.74265" lon="4.70672">
        <ele>299.59</ele>
        <time>2012-05-31T14:05:45Z</time>
      </trkpt>
      <trkpt lat="45.74265" lon="4.70672">
        <ele>300.07</ele>
        <time>2012-05-31T14:06:09Z</time>
      </trkpt>
      <trkpt lat="45.74266" lon="4.70673">
        <ele>299.59</ele>
        <time>2012-05-31T14:06:37Z</time>
      </trkpt>
      <trkpt lat="45.74266" lon="4.70674">
        <ele>300.07</ele>
        <time>2012-05-31T14:06:52Z</time>
      </trkpt>
      <trkpt lat="45.74263" lon="4.70694">
        <ele>300.07</ele>
        <time>2012-05-31T14:06:59Z</time>
      </trkpt>
      <trkpt lat="45.74255" lon="4.70773">
        <ele>300.07</ele>
        <time>2012-05-31T14:07:18Z</time>
      </trkpt>
      <trkpt lat="45.74255" lon="4.70829">
        <ele>300.55</ele>
        <time>2012-05-31T14:07:32Z</time>
      </trkpt>
      <trkpt lat="45.74252" lon="4.70897">
        <ele>299.59</ele>
        <time>2012-05-31T14:07:48Z</time>
      </trkpt>
      <trkpt lat="45.74253" lon="4.70949">
        <ele>299.59</ele>
        <time>2012-05-31T14:08:00Z</time>
      </trkpt>
      <trkpt lat="45.74251" lon="4.71013">
        <ele>299.11</ele>
        <time>2012-05-31T14:08:11Z</time>
      </trkpt>
      <trkpt lat="45.74251" lon="4.71042">
        <ele>298.15</ele>
        <time>2012-05-31T14:08:16Z</time>
      </trkpt>
      <trkpt lat="45.7425" lon="4.71123">
        <ele>298.15</ele>
        <time>2012-05-31T14:08:30Z</time>
      </trkpt>
      <trkpt lat="45.7425" lon="4.71148">
        <ele>298.15</ele>
        <time>2012-05-31T14:08:34Z</time>
      </trkpt>
      <trkpt lat="45.74252" lon="4.7123">
        <ele>296.22</ele>
        <time>2012-05-31T14:08:48Z</time>
      </trkpt>
      <trkpt lat="45.74257" lon="4.71281">
        <ele>294.3</ele>
        <time>2012-05-31T14:08:56Z</time>
      </trkpt>
      <trkpt lat="45.74273" lon="4.71389">
        <ele>291.42</ele>
        <time>2012-05-31T14:09:10Z</time>
      </trkpt>
      <trkpt lat="45.74278" lon="4.71414">
        <ele>290.94</ele>
        <time>2012-05-31T14:09:14Z</time>
      </trkpt>
      <trkpt lat="45.74284" lon="4.71432">
        <ele>290.46</ele>
        <time>2012-05-31T14:09:17Z</time>
      </trkpt>
      <trkpt lat="45.74328" lon="4.71514">
        <ele>290.46</ele>
        <time>2012-05-31T14:09:34Z</time>
      </trkpt>
      <trkpt lat="45.74346" lon="4.71537">
        <ele>290.46</ele>
        <time>2012-05-31T14:09:41Z</time>
      </trkpt>
      <trkpt lat="45.74355" lon="4.71532">
        <ele>290.94</ele>
        <time>2012-05-31T14:09:45Z</time>
      </trkpt>
      <trkpt lat="45.74398" lon="4.71466">
        <ele>292.86</ele>
        <time>2012-05-31T14:10:02Z</time>
      </trkpt>
      <trkpt lat="45.74441" lon="4.71415">
        <ele>296.22</ele>
        <time>2012-05-31T14:10:18Z</time>
      </trkpt>
      <trkpt lat="45.74443" lon="4.71412">
        <ele>296.22</ele>
        <time>2012-05-31T14:10:19Z</time>
      </trkpt>
      <trkpt lat="45.74442" lon="4.71396">
        <ele>296.22</ele>
        <time>2012-05-31T14:10:24Z</time>
      </trkpt>
      <trkpt lat="45.74454" lon="4.71374">
        <ele>296.22</ele>
        <time>2012-05-31T14:10:39Z</time>
      </trkpt>
    </trkseg>
  </trk>
</gpx>